Time;durP1;ratioP1;P1;durP2;ratioP2;P2;SDS_P1;SDS_P2;PMS_P1;PMS_P2;Temp;Humidity;BMP_temperature;BMP_pressure;BME280_temperature;BME280_humidity;BME280_pressure;Samples;Min_cycle;Max_cycle;Signal;HPM_P1;HPM_P2
2022/05/02 00:00:00;;;;;;;32.63;28.03;;;12.20;59.10;;;5.51;93.77;101924.75;170694;29;975;-71
2022/05/02 00:00:10;;;;;;;32.35;27.98;;;12.10;59.10;;;5.50;93.79;101914.38;170958;28;1070;-71
2022/05/02 00:00:17;;;;;;;33.00;28.60;;;12.10;59.10;;;5.50;93.75;101919.56;171334;28;1175;-71
2022/05/02 00:00:24;;;;;;;33.42;28.98;;;12.20;59.10;;;5.50;93.66;101916.97;171329;28;1165;-71
2022/05/02 00:00:30;;;;;;;33.24;28.78;;;12.20;59.10;;;5.49;93.94;101916.13;171303;28;939;-71
2022/05/02 00:00:36;;;;;;;33.63;28.77;;;12.20;59.10;;;5.48;93.63;101916.13;171484;28;804;-71
2022/05/02 00:00:44;;;;;;;33.80;28.87;;;12.20;59.10;;;5.48;93.54;101918.72;171968;28;847;-71
2022/05/02 00:00:50;;;;;;;34.13;28.93;;;12.20;59.20;;;5.48;93.61;101914.41;171998;28;1072;-71
2022/05/02 00:00:56;;;;;;;35.33;29.10;;;12.10;59.20;;;5.48;94.14;101916.97;172016;28;1073;-71
2022/05/02 00:01:02;;;;;;;35.50;29.27;;;12.10;59.20;;;5.49;94.03;101925.63;171598;28;1226;-71
2022/05/02 00:01:08;;;;;;;35.37;28.93;;;12.10;59.20;;;5.50;93.75;101919.56;172025;28;1415;-71
2022/05/02 00:01:14;;;;;;;36.30;28.70;;;12.20;59.20;;;5.48;93.92;101914.41;172009;28;1120;-71
2022/05/02 00:01:19;;;;;;;36.10;28.70;;;12.10;59.20;;;5.48;93.90;101919.56;172013;28;919;-71
2022/05/02 00:01:25;;;;;;;35.60;28.67;;;12.20;59.20;;;5.48;93.72;101921.31;172038;28;875;-71
2022/05/02 00:01:30;;;;;;;35.57;28.57;;;12.10;59.20;;;5.48;93.96;101914.41;172019;28;1120;-71
2022/05/02 00:01:36;;;;;;;36.50;29.02;;;12.10;59.20;;;5.47;93.79;101920.44;171971;28;1058;-71
2022/05/02 00:01:42;;;;;;;36.25;29.15;;;12.20;59.20;;;5.49;93.68;101917.84;172020;28;963;-71
2022/05/02 00:01:47;;;;;;;35.17;28.63;;;12.10;59.20;;;5.49;93.68;101916.13;171980;28;1042;-71
2022/05/02 00:01:53;;;;;;;34.55;28.45;;;12.10;59.20;;;5.50;93.75;101916.97;172012;28;887;-71
2022/05/02 00:01:59;;;;;;;35.08;28.80;;;12.20;59.20;;;5.49;94.09;101917.84;172026;28;943;-71
2022/05/02 00:02:05;;;;;;;34.67;28.67;;;12.10;59.20;;;5.50;93.52;101916.97;172035;28;891;-71
2022/05/02 00:02:11;;;;;;;33.97;28.27;;;12.10;59.20;;;5.50;93.90;101917.84;172038;28;911;-71
2022/05/02 00:02:16;;;;;;;34.80;28.63;;;12.10;59.20;;;5.48;93.59;101914.41;172019;28;1133;-71
2022/05/02 00:02:23;;;;;;;34.47;28.67;;;12.10;59.20;;;5.50;93.89;101916.97;172017;28;868;-71
2022/05/02 00:02:29;;;;;;;33.98;28.42;;;12.10;59.20;;;5.49;93.84;101920.44;172032;28;970;-71
2022/05/02 00:02:37;;;;;;;33.97;28.57;;;12.10;59.20;;;5.48;94.00;101919.56;171932;28;1810;-71
2022/05/02 00:02:43;;;;;;;33.96;28.83;;;12.10;59.20;;;5.48;93.79;101914.41;171998;28;1007;-71
2022/05/02 00:02:49;;;;;;;34.27;29.03;;;12.10;59.20;;;5.48;93.70;101918.72;171252;28;1338;-71
2022/05/02 00:02:55;;;;;;;34.90;29.17;;;12.10;59.20;;;5.47;93.88;101919.59;171310;28;936;-71
2022/05/02 00:03:00;;;;;;;34.90;29.30;;;12.10;59.20;;;5.49;93.87;101923.03;170954;28;876;-71
2022/05/02 00:03:06;;;;;;;34.97;29.25;;;12.10;59.20;;;5.49;93.67;101917.84;171341;28;1140;-71
2022/05/02 00:03:13;;;;;;;34.60;29.13;;;12.10;59.30;;;5.48;93.89;101918.72;171196;28;1290;-71
2022/05/02 00:03:19;;;;;;;34.74;29.06;;;12.10;59.30;;;5.47;94.16;101920.44;171298;28;1172;-71
2022/05/02 00:03:25;;;;;;;35.27;29.00;;;12.10;59.30;;;5.48;93.78;101913.56;171345;28;1077;-71
2022/05/02 00:03:31;;;;;;;35.60;28.90;;;12.10;59.30;;;5.47;93.57;101917.84;171343;28;860;-71
2022/05/02 00:03:37;;;;;;;35.33;28.77;;;12.10;59.30;;;5.48;93.93;101918.72;171368;28;911;-71
2022/05/02 00:03:42;;;;;;;36.00;28.90;;;12.10;59.30;;;5.47;93.88;101911.84;171335;28;943;-71
2022/05/02 00:03:48;;;;;;;35.40;28.87;;;12.10;59.30;;;5.47;94.02;101911.84;171350;28;871;-71
2022/05/02 00:03:54;;;;;;;33.72;28.70;;;12.10;59.30;;;5.47;94.15;101911.84;171349;28;1113;-71
2022/05/02 00:03:59;;;;;;;35.00;28.80;;;12.10;59.30;;;5.48;93.87;101918.72;171345;28;1077;-71
2022/05/02 00:04:05;;;;;;;35.73;29.10;;;12.10;59.30;;;5.48;93.78;101918.72;171357;28;1054;-71
2022/05/02 00:04:11;;;;;;;35.80;29.13;;;12.10;59.30;;;5.48;93.69;101919.56;171357;28;1164;-71
2022/05/02 00:04:17;;;;;;;35.45;29.02;;;12.10;59.30;;;5.49;93.88;101915.25;171371;28;998;-71
2022/05/02 00:04:23;;;;;;;39.25;29.05;;;12.10;59.30;;;5.49;93.89;101921.31;171328;28;1159;-71
2022/05/02 00:04:28;;;;;;;40.03;28.77;;;12.10;59.30;;;5.50;93.81;101911.81;171331;28;971;-71
2022/05/02 00:04:34;;;;;;;38.20;28.40;;;12.00;59.30;;;5.51;93.86;101918.72;171364;28;1301;-71
2022/05/02 00:04:39;;;;;;;38.58;28.02;;;12.00;59.30;;;5.51;93.93;101918.72;171325;28;1094;-71
2022/05/02 00:04:45;;;;;;;39.40;28.15;;;12.10;59.30;;;5.50;93.46;101911.81;171337;28;1375;-71
2022/05/02 00:04:51;;;;;;;37.00;27.97;;;12.10;59.30;;;5.51;93.61;101913.56;171923;28;934;-71
2022/05/02 00:04:57;;;;;;;34.13;27.67;;;12.00;59.20;;;5.51;94.07;101918.72;172044;28;1301;-71
2022/05/02 00:05:06;;;;;;;33.42;27.30;;;12.10;59.30;;;5.50;93.70;101917.84;171303;28;1094;-71
2022/05/02 00:05:11;;;;;;;32.67;26.93;;;12.10;59.20;;;5.51;93.60;101918.72;171377;28;958;-71
2022/05/02 00:05:17;;;;;;;32.80;26.80;;;12.10;59.20;;;5.51;93.56;101914.38;171270;28;1922;-71
2022/05/02 00:05:23;;;;;;;33.25;26.75;;;12.10;59.20;;;5.52;93.51;101912.69;171312;28;955;-71
2022/05/02 00:05:29;;;;;;;34.28;27.13;;;12.00;59.20;;;5.52;93.61;101920.44;171333;28;856;-71
2022/05/02 00:05:35;;;;;;;33.63;27.08;;;12.10;59.20;;;5.51;93.37;101914.38;171386;28;942;-71
2022/05/02 00:05:41;;;;;;;33.55;27.30;;;12.10;59.20;;;5.51;93.54;101918.72;171234;28;1137;-71
2022/05/02 00:05:47;;;;;;;33.07;27.60;;;12.10;59.10;;;5.51;93.41;101918.72;171368;28;1042;-71
2022/05/02 00:05:55;;;;;;;33.83;28.17;;;12.10;59.10;;;5.52;93.28;101915.25;171361;28;1144;-71
2022/05/02 00:06:00;;;;;;;34.22;28.94;;;12.10;59.10;;;5.53;93.30;101922.16;171334;28;1015;-71
2022/05/02 00:06:07;;;;;;;36.03;29.70;;;12.10;59.10;;;5.51;93.34;101914.38;171373;28;884;-71
2022/05/02 00:06:13;;;;;;;36.72;30.02;;;12.00;59.20;;;5.50;93.70;101915.25;171340;28;1103;-71
2022/05/02 00:06:19;;;;;;;36.60;29.70;;;12.00;59.20;;;5.51;93.31;101918.72;171921;28;963;-71
2022/05/02 00:06:24;;;;;;;36.17;29.15;;;12.00;59.20;;;5.51;93.56;101914.38;172027;28;880;-71
2022/05/02 00:06:30;;;;;;;35.67;28.67;;;12.10;59.20;;;5.50;93.50;101912.69;172007;28;943;-71
2022/05/02 00:06:36;;;;;;;34.15;28.20;;;12.00;59.20;;;5.51;93.71;101919.56;172035;28;958;-71
2022/05/02 00:06:41;;;;;;;33.30;28.00;;;12.10;59.20;;;5.51;93.11;101913.56;171996;28;1014;-71
2022/05/02 00:06:47;;;;;;;33.42;28.55;;;12.00;59.20;;;5.50;93.33;101911.81;171929;28;932;-71
2022/05/02 00:06:53;;;;;;;33.53;28.77;;;12.00;59.20;;;5.50;93.43;101916.97;172682;28;1326;-71
2022/05/02 00:06:58;;;;;;;34.45;29.08;;;12.00;59.20;;;5.49;93.34;101915.25;172691;28;1124;-71
2022/05/02 00:07:04;;;;;;;34.97;29.05;;;12.00;59.30;;;5.49;93.36;101915.25;172679;28;1046;-71
2022/05/02 00:07:10;;;;;;;35.03;29.02;;;12.10;59.30;;;5.49;93.66;101910.97;173247;28;1066;-71
2022/05/02 00:07:16;;;;;;;34.93;28.67;;;12.00;59.30;;;5.50;93.69;101916.97;173389;28;863;-71
2022/05/02 00:07:22;;;;;;;34.94;28.66;;;12.00;59.30;;;5.50;93.67;101911.81;172615;28;1158;-71
2022/05/02 00:07:28;;;;;;;35.83;28.40;;;12.00;59.30;;;5.49;93.44;101910.97;172681;28;1073;-71
2022/05/02 00:07:35;;;;;;;38.85;28.55;;;12.10;59.30;;;5.50;93.77;101914.38;172729;28;1144;-71
2022/05/02 00:07:42;;;;;;;40.30;28.92;;;12.00;59.30;;;5.48;93.63;101909.22;172679;28;1090;-71
2022/05/02 00:07:47;;;;;;;40.08;29.20;;;12.00;59.30;;;5.50;93.39;101909.22;172706;28;974;-71
2022/05/02 00:07:53;;;;;;;39.97;29.35;;;12.00;59.30;;;5.51;93.58;101913.56;172694;28;935;-71
2022/05/02 00:07:59;;;;;;;37.25;29.25;;;12.00;59.30;;;5.50;93.41;101906.63;172658;28;868;-71
2022/05/02 00:08:06;;;;;;;34.63;28.83;;;12.00;59.30;;;5.51;93.54;101913.56;172729;28;978;-70
2022/05/02 00:08:13;;;;;;;34.90;28.62;;;12.00;59.30;;;5.51;93.76;101916.13;172675;28;1101;-70
2022/05/02 00:08:19;;;;;;;35.38;28.10;;;12.10;59.30;;;5.52;93.79;101912.69;172663;28;1101;-71
2022/05/02 00:08:24;;;;;;;35.37;27.60;;;12.00;59.30;;;5.51;93.66;101913.56;172663;28;1104;-71
2022/05/02 00:08:30;;;;;;;34.45;27.50;;;12.00;59.20;;;5.50;93.68;101912.69;172674;28;935;-71
2022/05/02 00:08:36;;;;;;;34.10;27.42;;;12.10;59.20;;;5.51;93.44;101913.56;172732;28;946;-71
2022/05/02 00:08:42;;;;;;;33.33;27.33;;;12.00;59.20;;;5.51;93.16;101918.72;172703;28;951;-71
2022/05/02 00:08:47;;;;;;;33.13;27.40;;;12.00;59.20;;;5.51;93.53;101913.56;172683;28;1242;-71
2022/05/02 00:08:53;;;;;;;33.55;27.75;;;12.00;59.10;;;5.50;93.30;101906.63;172625;28;931;-71
2022/05/02 00:08:59;;;;;;;34.83;28.08;;;12.00;59.20;;;5.48;93.14;101908.38;171755;28;948;-71
2022/05/02 00:09:04;;;;;;;35.97;28.53;;;12.10;59.20;;;5.49;93.38;101912.69;171813;28;1440;-71
2022/05/02 00:09:10;;;;;;;36.40;28.85;;;12.00;59.20;;;5.48;93.42;101913.56;172171;28;1116;-71
2022/05/02 00:09:15;;;;;;;36.73;29.07;;;12.00;59.20;;;5.47;93.05;101911.84;172003;28;1116;-71
2022/05/02 00:09:21;;;;;;;37.03;29.33;;;12.00;59.20;;;5.46;93.26;101905.78;172482;28;1051;-71
2022/05/02 00:09:27;;;;;;;37.47;29.67;;;12.00;59.20;;;5.46;93.67;101907.50;172732;28;872;-71
2022/05/02 00:09:32;;;;;;;37.60;29.90;;;12.00;59.20;;;5.46;93.44;101907.50;172779;28;903;-71
2022/05/02 00:09:38;;;;;;;37.28;29.92;;;12.00;59.20;;;5.46;93.54;101910.09;172712;28;938;-71
2022/05/02 00:09:44;;;;;;;37.30;29.85;;;12.00;59.30;;;5.46;93.92;101908.38;172777;28;914;-71
2022/05/02 00:09:49;;;;;;;37.40;30.05;;;12.00;59.30;;;5.45;93.85;101906.66;172729;28;1054;-71
2022/05/02 00:09:56;;;;;;;37.47;30.27;;;12.00;59.30;;;5.45;93.55;101913.56;172720;28;1089;-71
2022/05/02 00:10:03;;;;;;;37.83;30.50;;;12.00;59.30;;;5.43;93.44;101910.97;172724;28;1017;-71
2022/05/02 00:10:11;;;;;;;38.47;30.57;;;12.00;59.30;;;5.44;93.79;101917.03;172743;28;959;-71
2022/05/02 00:10:17;;;;;;;39.47;30.57;;;12.00;59.30;;;5.43;93.84;101910.13;172765;28;915;-71
2022/05/02 00:10:23;;;;;;;39.23;30.27;;;12.00;59.40;;;5.43;93.54;101910.13;172763;28;966;-71
2022/05/02 00:10:30;;;;;;;39.20;30.00;;;12.00;59.40;;;5.43;93.73;101910.13;172762;28;970;-71
2022/05/02 00:10:36;;;;;;;39.42;30.22;;;12.00;59.40;;;5.43;93.96;101913.56;172802;28;1002;-71
2022/05/02 00:10:42;;;;;;;38.67;30.27;;;12.00;59.40;;;5.43;94.16;101910.13;172733;28;1145;-71
2022/05/02 00:10:47;;;;;;;37.60;30.45;;;12.00;59.40;;;5.44;93.69;101912.69;172693;28;1046;-71
2022/05/02 00:10:53;;;;;;;37.83;30.60;;;12.00;59.40;;;5.43;93.89;101908.38;172751;28;918;-71
2022/05/02 00:10:59;;;;;;;37.55;30.67;;;12.00;59.40;;;5.44;93.93;101911.84;172661;28;879;-71
2022/05/02 00:11:04;;;;;;;36.67;30.50;;;12.00;59.40;;;5.44;93.67;101904.91;172751;28;875;-71
2022/05/02 00:11:10;;;;;;;36.87;30.53;;;12.00;59.40;;;5.46;93.66;101910.09;172740;28;868;-71
2022/05/02 00:11:16;;;;;;;36.60;30.45;;;12.00;59.40;;;5.46;93.89;101915.28;172719;28;1050;-71
2022/05/02 00:11:21;;;;;;;35.78;30.08;;;12.00;59.40;;;5.46;93.95;101912.69;171906;28;752;-71
2022/05/02 00:11:27;;;;;;;35.10;29.87;;;12.00;59.40;;;5.46;93.55;101910.09;171930;28;923;-71
2022/05/02 00:11:33;;;;;;;35.33;30.02;;;12.00;59.40;;;5.47;93.46;101909.25;171965;28;1633;-71
2022/05/02 00:11:38;;;;;;;34.40;29.63;;;12.00;59.30;;;5.46;93.41;101904.91;171972;28;1136;-71
2022/05/02 00:11:44;;;;;;;35.00;29.53;;;12.00;59.30;;;5.47;93.88;101914.44;172011;28;1026;-71
2022/05/02 00:11:49;;;;;;;35.45;29.73;;;12.00;59.30;;;5.45;93.54;101909.25;171992;28;1030;-71
2022/05/02 00:11:55;;;;;;;35.22;29.85;;;12.00;59.30;;;5.45;93.28;101909.25;172036;28;876;-71
2022/05/02 00:12:01;;;;;;;34.93;29.67;;;12.00;59.30;;;5.44;93.73;101910.09;171991;28;1081;-71
2022/05/02 00:12:08;;;;;;;35.67;29.85;;;12.00;59.30;;;5.44;93.75;101907.50;172044;28;923;-71
2022/05/02 00:12:14;;;;;;;35.16;29.74;;;12.00;59.30;;;5.44;93.54;101912.69;171978;28;958;-71
2022/05/02 00:12:19;;;;;;;34.53;29.48;;;12.00;59.30;;;5.45;93.47;101908.38;172617;28;1139;-71
2022/05/02 00:12:25;;;;;;;34.05;28.98;;;12.00;59.30;;;5.45;93.63;101921.31;172679;28;1233;-71
2022/05/02 00:12:31;;;;;;;33.27;28.50;;;12.00;59.30;;;5.46;93.52;101910.09;172699;28;1034;-71
2022/05/02 00:12:39;;;;;;;33.33;28.63;;;11.90;59.30;;;5.47;93.53;101906.66;172730;28;1002;-71
2022/05/02 00:12:45;;;;;;;34.03;28.85;;;12.00;59.30;;;5.45;93.26;101914.44;172686;28;1100;-71
2022/05/02 00:12:51;;;;;;;35.67;29.23;;;11.90;59.30;;;5.46;93.34;101910.09;172713;28;954;-71
2022/05/02 00:12:58;;;;;;;37.75;29.85;;;11.90;59.30;;;5.46;93.39;101910.09;171942;28;1220;-71
2022/05/02 00:13:09;;;;;;;38.74;29.86;;;12.00;59.30;;;5.46;93.52;101910.09;172014;28;1148;-71
2022/05/02 00:13:15;;;;;;;37.90;29.87;;;12.00;59.30;;;5.45;93.22;101910.97;171992;28;1014;-72
2022/05/02 00:13:20;;;;;;;38.30;29.85;;;11.90;59.30;;;5.43;93.56;101908.38;171892;28;1412;-71
2022/05/02 00:13:27;;;;;;;37.63;29.60;;;11.90;59.30;;;5.44;93.21;101911.84;172009;28;1057;-71
2022/05/02 00:13:32;;;;;;;35.88;29.65;;;11.90;59.30;;;5.44;93.21;101911.84;172448;28;938;-71
2022/05/02 00:13:38;;;;;;;36.40;29.77;;;11.90;59.30;;;5.44;93.74;101906.66;172673;28;955;-71
2022/05/02 00:13:44;;;;;;;35.97;29.53;;;11.90;59.30;;;5.45;93.65;101916.16;172677;28;919;-71
2022/05/02 00:13:50;;;;;;;35.03;29.45;;;12.00;59.30;;;5.44;93.70;101911.84;172693;28;863;-71
2022/05/02 00:13:56;;;;;;;34.20;29.40;;;12.00;59.40;;;5.43;93.59;101910.13;172663;28;931;-71
2022/05/02 00:14:02;;;;;;;35.40;29.50;;;11.90;59.40;;;5.41;93.29;101903.22;172690;28;1170;-71
2022/05/02 00:14:08;;;;;;;35.40;29.43;;;11.90;59.40;;;5.41;93.52;101908.38;172733;28;1124;-71
2022/05/02 00:14:13;;;;;;;35.10;29.30;;;11.90;59.30;;;5.41;93.65;101913.56;172680;28;1113;-71
2022/05/02 00:14:19;;;;;;;36.17;29.42;;;11.90;59.40;;;5.41;93.58;101908.38;172266;28;739;-71
2022/05/02 00:14:25;;;;;;;36.43;29.50;;;11.90;59.40;;;5.41;93.69;101913.56;172001;28;1038;-71
2022/05/02 00:14:30;;;;;;;36.08;29.63;;;11.90;59.40;;;5.42;93.47;101911.84;172015;28;1049;-71
2022/05/02 00:14:37;;;;;;;36.40;30.00;;;12.00;59.40;;;5.39;93.66;101912.72;172029;28;1097;-71
2022/05/02 00:14:42;;;;;;;37.90;30.55;;;12.00;59.40;;;5.38;93.79;101910.97;172031;28;1354;-71
2022/05/02 00:14:48;;;;;;;37.13;30.50;;;11.90;59.40;;;5.40;93.58;101905.78;171964;28;1034;-71
2022/05/02 00:14:54;;;;;;;36.50;30.60;;;11.90;59.40;;;5.39;93.54;101910.13;172004;28;1331;-71
2022/05/02 00:15:01;;;;;;;36.90;30.08;;;12.00;59.40;;;5.41;93.73;101908.38;172030;28;1096;-71
2022/05/02 00:15:08;;;;;;;36.58;29.92;;;11.90;59.50;;;5.41;94.00;101913.56;172016;28;911;-71
2022/05/02 00:15:14;;;;;;;34.57;29.50;;;11.90;59.50;;;5.41;93.55;101907.53;171967;28;963;-71
2022/05/02 00:15:20;;;;;;;35.00;29.50;;;11.90;59.50;;;5.39;93.79;101910.13;172382;28;1046;-71
2022/05/02 00:15:25;;;;;;;36.35;29.38;;;11.90;59.50;;;5.41;93.82;101913.56;172718;28;1115;-70
2022/05/02 00:15:31;;;;;;;35.03;29.23;;;11.90;59.50;;;5.41;93.82;101910.97;172729;28;927;-70
2022/05/02 00:15:38;;;;;;;35.75;29.17;;;11.90;59.40;;;5.41;93.68;101908.38;172764;28;886;-71
2022/05/02 00:15:43;;;;;;;35.70;28.87;;;11.90;59.40;;;5.38;93.44;101916.16;172764;28;1025;-71
2022/05/02 00:15:49;;;;;;;35.10;28.75;;;11.90;59.40;;;5.40;93.76;101917.03;172698;28;1093;-71
2022/05/02 00:15:55;;;;;;;33.37;28.63;;;11.90;59.40;;;5.40;93.88;101916.16;172767;28;859;-71
2022/05/02 00:16:00;;;;;;;33.28;28.60;;;11.90;59.40;;;5.39;93.58;101915.31;172721;28;1006;-71
2022/05/02 00:16:09;;;;;;;32.63;28.25;;;11.90;59.40;;;5.38;93.84;101910.13;172781;28;1049;-70
2022/05/02 00:16:15;;;;;;;33.01;28.54;;;11.90;59.40;;;5.38;93.62;101917.91;172717;28;1144;-71
2022/05/02 00:16:20;;;;;;;34.17;28.90;;;11.90;59.40;;;5.37;93.82;101911.00;172704;28;1038;-71
2022/05/02 00:16:26;;;;;;;36.08;29.27;;;11.90;59.40;;;5.36;93.53;101907.56;172725;28;855;-71
2022/05/02 00:16:32;;;;;;;37.45;29.83;;;11.90;59.40;;;5.38;93.71;101910.97;172689;28;1179;-71
2022/05/02 00:16:39;;;;;;;38.25;29.92;;;11.90;59.50;;;5.37;94.07;101911.84;172760;28;922;-71
2022/05/02 00:16:44;;;;;;;39.08;30.05;;;11.90;59.40;;;5.36;93.60;101910.13;172739;28;998;-71
2022/05/02 00:16:50;;;;;;;39.47;30.05;;;11.90;59.50;;;5.34;93.58;101911.84;172689;28;939;-71
2022/05/02 00:16:55;;;;;;;39.17;30.23;;;11.90;59.50;;;5.32;93.58;101904.97;172714;28;880;-71
2022/05/02 00:17:03;;;;;;;40.00;30.30;;;11.90;59.50;;;5.29;93.67;101913.59;172683;28;1109;-71
2022/05/02 00:17:09;;;;;;;40.34;30.50;;;11.90;59.50;;;5.28;93.71;101906.72;172722;28;1141;-71
2022/05/02 00:17:16;;;;;;;39.28;30.14;;;11.90;59.50;;;5.28;93.77;101911.91;171838;28;1870;-71
2022/05/02 00:17:56;;;;;;;38.53;30.03;;;11.90;59.50;;;5.28;94.11;101912.72;172010;28;1062;-71
2022/05/02 00:17:56;;;;;;;37.31;30.30;;;11.90;59.50;;;5.30;93.92;101910.16;171846;28;1266;-71
2022/05/02 00:18:02;;;;;;;37.91;30.92;;;11.90;59.50;;;5.32;93.94;101908.44;171975;28;1237;-71
2022/05/02 00:18:08;;;;;;;37.88;30.98;;;11.90;59.50;;;5.32;94.07;101908.44;172038;28;1053;-71
2022/05/02 00:18:14;;;;;;;38.55;31.08;;;11.90;59.60;;;5.33;94.06;101914.47;171280;28;1069;-71
2022/05/02 00:18:20;;;;;;;38.28;30.92;;;11.90;59.50;;;5.32;94.28;101913.59;171348;28;927;-71
2022/05/02 00:18:28;;;;;;;37.28;30.90;;;11.90;59.50;;;5.33;94.21;101910.16;171332;28;959;-71
2022/05/02 00:18:33;;;;;;;38.08;30.98;;;11.80;59.50;;;5.33;94.25;101904.13;171343;28;1006;-71
2022/05/02 00:18:39;;;;;;;38.63;30.90;;;11.90;59.50;;;5.33;94.00;101910.16;171338;28;1026;-71
2022/05/02 00:18:45;;;;;;;37.22;30.60;;;11.90;59.50;;;5.34;93.95;101906.69;171335;28;879;-71
2022/05/02 00:18:50;;;;;;;37.00;30.33;;;11.90;59.50;;;5.34;93.75;101906.69;171309;28;1187;-71
2022/05/02 00:18:56;;;;;;;38.63;30.50;;;11.90;59.50;;;5.34;94.31;101911.00;171351;28;1120;-71
2022/05/02 00:19:03;;;;;;;38.10;30.38;;;11.90;59.50;;;5.33;93.90;101912.72;171355;28;1065;-71
2022/05/02 00:19:08;;;;;;;37.70;30.23;;;11.90;59.50;;;5.34;94.14;101909.28;171341;28;1098;-71
2022/05/02 00:19:14;;;;;;;37.95;30.55;;;11.90;59.50;;;5.34;94.04;101900.66;171844;28;931;-71
2022/05/02 00:19:20;;;;;;;38.10;30.83;;;11.90;59.50;;;5.34;93.63;101906.69;171934;28;1073;-71
2022/05/02 00:19:26;;;;;;;36.95;30.90;;;11.90;59.50;;;5.35;94.09;101913.59;171942;28;1058;-71
2022/05/02 00:19:31;;;;;;;36.53;31.10;;;11.90;59.50;;;5.35;94.08;101907.56;172019;28;1062;-71
2022/05/02 00:19:37;;;;;;;36.42;31.48;;;11.90;59.50;;;5.35;94.04;101903.25;172021;28;1315;-71
2022/05/02 00:19:43;;;;;;;36.47;31.33;;;11.80;59.50;;;5.36;94.00;101907.56;171968;28;962;-71
2022/05/02 00:19:48;;;;;;;38.38;31.27;;;11.90;59.50;;;5.36;93.53;101909.25;172001;28;1049;-71
2022/05/02 00:19:54;;;;;;;38.13;31.42;;;11.90;59.50;;;5.34;94.10;101911.84;171311;28;1167;-71
2022/05/02 00:20:00;;;;;;;39.05;31.45;;;11.90;59.50;;;5.34;93.83;101906.69;171334;28;1002;-71
2022/05/02 00:20:07;;;;;;;39.33;31.17;;;11.80;59.50;;;5.34;93.95;101906.69;171393;28;837;-71
2022/05/02 00:20:13;;;;;;;39.47;31.83;;;11.90;59.50;;;5.35;93.66;101911.00;171644;28;900;-71
2022/05/02 00:20:19;;;;;;;37.95;32.00;;;11.90;59.50;;;5.35;93.66;101912.72;171991;28;1049;-71
2022/05/02 00:20:36;;;;;;;38.33;31.88;;;11.90;59.50;;;5.34;94.09;101917.03;172002;28;1073;-71
2022/05/02 00:20:42;;;;;;;38.31;31.77;;;11.80;59.50;;;5.33;93.92;101910.16;171925;28;1256;-71
2022/05/02 00:20:47;;;;;;;37.95;31.13;;;11.80;59.50;;;5.34;93.74;101913.59;171986;28;943;-71
2022/05/02 00:20:53;;;;;;;38.15;31.13;;;11.90;59.50;;;5.33;93.73;101915.31;172028;28;852;-71
2022/05/02 00:20:59;;;;;;;37.90;31.15;;;11.90;59.50;;;5.33;93.82;101902.38;171239;28;1273;-71
2022/05/02 00:21:05;;;;;;;38.05;31.40;;;11.80;59.50;;;5.34;93.52;101911.00;171349;28;1007;-71
2022/05/02 00:21:11;;;;;;;38.07;31.53;;;11.80;59.50;;;5.33;93.46;101910.16;171324;28;1026;-71
2022/05/02 00:21:16;;;;;;;38.80;31.60;;;11.80;59.50;;;5.34;93.85;101906.69;171334;28;943;-71
2022/05/02 00:21:22;;;;;;;38.60;31.58;;;11.80;59.50;;;5.34;93.84;101906.69;171286;28;1015;-71
2022/05/02 00:21:28;;;;;;;37.67;31.30;;;11.90;59.50;;;5.34;93.88;101906.69;171288;28;1066;-70
2022/05/02 00:21:34;;;;;;;37.67;30.98;;;11.80;59.50;;;5.35;93.71;101903.25;171301;28;1117;-70
2022/05/02 00:21:39;;;;;;;36.88;30.75;;;11.80;59.50;;;5.34;93.58;101906.69;171344;28;1026;-71
2022/05/02 00:21:45;;;;;;;36.83;30.98;;;11.80;59.50;;;5.35;93.56;101911.00;171326;28;923;-71
2022/05/02 00:21:50;;;;;;;36.93;31.07;;;11.80;59.40;;;5.35;93.29;101908.44;171463;28;915;-71
2022/05/02 00:21:56;;;;;;;36.95;31.17;;;11.90;59.40;;;5.35;93.47;101903.25;171981;28;943;-71
2022/05/02 00:22:03;;;;;;;37.65;31.58;;;11.80;59.40;;;5.35;93.85;101916.19;172001;28;1120;-71
2022/05/02 00:22:08;;;;;;;38.50;31.80;;;11.80;59.40;;;5.35;93.46;101907.56;172027;28;891;-71
2022/05/02 00:22:14;;;;;;;38.60;31.67;;;11.80;59.40;;;5.36;93.75;101914.44;171991;28;822;-71
2022/05/02 00:22:20;;;;;;;39.83;32.07;;;11.80;59.40;;;5.35;93.41;101904.97;172014;28;1030;-71
2022/05/02 00:22:25;;;;;;;40.75;32.42;;;11.80;59.40;;;5.35;93.76;101905.84;171971;28;1145;-71
2022/05/02 00:22:31;;;;;;;39.70;32.25;;;11.80;59.40;;;5.33;93.58;101899.78;171998;28;1105;-71
2022/05/02 00:22:37;;;;;;;39.33;32.23;;;11.80;59.50;;;5.34;93.84;101906.69;172011;28;1049;-71
2022/05/02 00:22:42;;;;;;;40.53;32.13;;;11.80;59.50;;;5.33;93.80;101904.97;172007;28;950;-71
2022/05/02 00:22:48;;;;;;;39.90;31.60;;;11.80;59.50;;;5.33;93.51;101910.16;172026;28;860;-71
2022/05/02 00:22:55;;;;;;;41.00;31.25;;;11.80;59.50;;;5.34;93.63;101903.25;172609;28;923;-71
2022/05/02 00:23:07;;;;;;;40.98;30.78;;;11.80;59.50;;;5.33;93.61;101910.16;173343;28;954;-71
2022/05/02 00:23:13;;;;;;;39.47;30.44;;;11.80;59.50;;;5.32;93.64;101905.84;173346;28;1258;-71
2022/05/02 00:23:20;;;;;;;36.58;30.20;;;11.80;59.50;;;5.33;93.78;101904.97;173362;28;973;-70
2022/05/02 00:23:26;;;;;;;34.48;29.80;;;11.80;59.50;;;5.33;93.62;101904.97;173306;28;941;-71
2022/05/02 00:23:32;;;;;;;35.37;29.97;;;11.80;59.50;;;5.34;93.42;101908.44;173308;28;1006;-71
2022/05/02 00:23:38;;;;;;;36.70;30.10;;;11.80;59.50;;;5.34;93.56;101903.25;173286;28;1049;-71
2022/05/02 00:23:43;;;;;;;38.17;30.00;;;11.80;59.50;;;5.34;93.98;101905.84;173357;28;1078;-71
2022/05/02 00:23:50;;;;;;;38.83;30.10;;;11.80;59.50;;;5.33;94.05;101897.19;173366;28;1038;-71
2022/05/02 00:23:55;;;;;;;39.38;30.55;;;11.90;59.50;;;5.34;93.86;101904.09;173341;28;1093;-71
2022/05/02 00:24:01;;;;;;;39.92;30.77;;;11.80;59.50;;;5.34;93.81;101901.50;173316;28;1057;-71
2022/05/02 00:24:08;;;;;;;39.60;30.83;;;11.80;59.50;;;5.34;93.77;101911.00;173362;28;1045;-71
2022/05/02 00:24:14;;;;;;;39.37;30.83;;;11.80;59.50;;;5.33;93.93;101897.19;173337;28;930;-71
2022/05/02 00:24:20;;;;;;;39.13;30.88;;;11.80;59.60;;;5.32;94.29;101903.25;173327;28;887;-72
2022/05/02 00:24:26;;;;;;;38.75;30.70;;;11.80;59.60;;;5.32;93.76;101903.25;173335;28;1030;-71
2022/05/02 00:24:32;;;;;;;38.80;30.83;;;11.80;59.60;;;5.32;93.79;101904.97;173362;28;850;-71
2022/05/02 00:24:38;;;;;;;38.84;30.98;;;11.80;59.60;;;5.30;94.11;101899.78;173392;28;998;-70
2022/05/02 00:24:44;;;;;;;38.63;31.23;;;11.80;59.60;;;5.30;94.02;101899.78;173369;28;1045;-71
2022/05/02 00:24:50;;;;;;;38.26;30.92;;;11.80;59.60;;;5.30;94.06;101899.78;172565;28;1291;-71
2022/05/02 00:24:55;;;;;;;39.08;31.23;;;11.80;59.60;;;5.29;94.05;101900.66;171322;28;963;-71
2022/05/02 00:25:01;;;;;;;38.90;31.13;;;11.80;59.60;;;5.28;94.23;101902.38;171297;28;1017;-71
2022/05/02 00:25:08;;;;;;;38.67;31.08;;;11.80;59.60;;;5.29;94.08;101903.25;171320;28;1304;-70
2022/05/02 00:25:15;;;;;;;39.14;31.12;;;11.80;59.60;;;5.29;94.25;101900.66;171308;28;904;-70
2022/05/02 00:25:21;;;;;;;39.24;31.24;;;11.80;59.70;;;5.29;94.14;101903.25;171235;28;1966;-70
2022/05/02 00:25:28;;;;;;;38.78;31.23;;;11.80;59.70;;;5.28;94.06;101901.53;171353;28;876;-71
2022/05/02 00:25:34;;;;;;;37.47;30.90;;;11.80;59.70;;;5.28;94.03;101906.72;171297;28;1077;-71
2022/05/02 00:25:40;;;;;;;37.53;31.10;;;11.80;59.70;;;5.27;94.06;101905.84;171340;28;1242;-72
2022/05/02 00:25:46;;;;;;;37.80;31.38;;;11.80;59.70;;;5.28;94.28;101906.72;170607;29;1534;-71
2022/05/02 00:25:52;;;;;;;37.50;31.17;;;11.80;59.70;;;5.27;94.08;101900.66;170680;29;1728;-71
2022/05/02 00:25:58;;;;;;;36.78;30.88;;;11.80;59.70;;;5.28;94.17;101904.13;170672;29;1240;-70
2022/05/02 00:26:03;;;;;;;37.05;30.85;;;11.80;59.70;;;5.28;94.25;101901.53;170689;29;880;-70
2022/05/02 00:26:09;;;;;;;37.00;30.67;;;11.80;59.70;;;5.30;94.26;101904.13;170691;29;1058;-70